Time;durP1;ratioP1;P1;durP2;ratioP2;P2;SDS_P1;SDS_P2;PMS_P1;PMS_P2;Temp;Humidity;BMP_temperature;BMP_pressure;BME280_temperature;BME280_humidity;BME280_pressure;Samples;Min_cycle;Max_cycle;Signal;HPM_P1;HPM_P2
2021/12/31 00:00:46;;;;;;;22.92;13.77;;;;;;;7.97;79.04;100715.44;5076118;28;20055;-20
2021/12/31 00:03:12;;;;;;;18.35;12.23;;;;;;;7.69;79.51;100707.31;5084888;28;20123;-21
2021/12/31 00:05:38;;;;;;;20.17;14.20;;;;;;;7.47;81.18;100719.66;5084025;28;20027;-21
2021/12/31 00:08:03;;;;;;;32.50;18.98;;;;;;;7.41;82.07;100731.00;5088229;28;20054;-21
2021/12/31 00:10:29;;;;;;;44.38;27.80;;;;;;;7.03;82.74;100712.47;5088339;28;20020;-21
2021/12/31 00:12:56;;;;;;;90.22;69.63;;;;;;;6.92;84.26;100734.09;5084969;28;20025;-21
2021/12/31 00:15:22;;;;;;;115.13;82.15;;;;;;;6.92;84.71;100744.72;5073132;28;20032;-21
2021/12/31 00:17:47;;;;;;;76.15;54.08;;;;;;;7.07;84.37;100739.44;5080588;28;20089;-21
2021/12/31 00:20:19;;;;;;;169.40;118.60;;;;;;;7.33;83.44;100739.84;5087662;28;20036;-21
2021/12/31 00:25:22;;;;;;;67.25;50.15;;;;;;;7.08;84.03;100731.31;5087683;28;20393;-20
2021/12/31 00:27:48;;;;;;;90.78;69.38;;;;;;;6.98;84.26;100741.34;5052695;28;20118;-21
2021/12/31 00:30:13;;;;;;;68.43;50.28;;;;;;;7.17;84.22;100754.13;5087151;28;20121;-21
2021/12/31 00:32:39;;;;;;;259.10;162.00;;;;;;;7.15;84.41;100745.50;5069372;28;20032;-21
2021/12/31 00:35:06;;;;;;;152.55;99.57;;;;;;;7.22;83.94;100738.47;5087276;28;20028;-20
2021/12/31 00:37:34;;;;;;;51.83;35.85;;;;;;;7.31;83.00;100710.03;5069249;28;20028;-22
2021/12/31 00:39:59;;;;;;;36.97;28.15;;;;;;;7.40;83.31;100739.97;5087411;28;20092;-21
2021/12/31 00:42:25;;;;;;;33.60;22.75;;;;;;;7.38;83.74;100739.34;5087610;28;20028;-21
2021/12/31 00:44:50;;;;;;;27.38;16.40;;;;;;;7.31;83.21;100720.63;5087447;28;20473;-21
2021/12/31 00:47:16;;;;;;;26.67;16.15;;;;;;;7.30;84.30;100734.09;5087012;28;20120;-21
2021/12/31 00:49:41;;;;;;;26.33;16.23;;;;;;;7.35;83.78;100731.72;5087586;28;20047;-22
2021/12/31 00:52:07;;;;;;;32.30;18.17;;;;;;;7.68;81.46;100715.44;5087845;28;20024;-21
2021/12/31 00:54:35;;;;;;;26.80;17.45;;;;;;;7.95;80.31;100729.91;5069039;28;20906;-21
2021/12/31 00:57:03;;;;;;;;;;;;;;;7.88;79.91;100710.41;5087940;28;20043;-21
2021/12/31 00:59:30;;;;;;;24.65;15.63;;;;;;;7.48;81.60;100705.38;5086931;28;19908;-21
2021/12/31 01:01:55;;;;;;;27.33;17.50;;;;;;;7.80;81.49;100724.59;5086937;28;20426;-21
2021/12/31 01:04:22;;;;;;;24.63;16.15;;;;;;;7.97;80.34;100712.78;5087491;28;20028;-21
2021/12/31 01:06:48;;;;;;;21.67;13.95;;;;;;;7.76;80.72;100710.03;5087272;28;20037;-21
2021/12/31 01:09:13;;;;;;;23.60;13.93;;;;;;;7.85;80.00;100715.06;5087083;28;20032;-21
2021/12/31 01:11:42;;;;;;;19.35;12.70;;;;;;;7.78;80.33;100713.31;5068891;28;20119;-21
2021/12/31 01:14:17;;;;;;;21.05;13.15;;;;;;;7.78;80.44;100721.28;5087119;28;20111;-20
2021/12/31 01:16:48;;;;;;;18.85;12.18;;;;;;;7.80;80.23;100713.97;5090244;28;20036;-20
2021/12/31 01:21:39;;;;;;;16.85;11.15;;;;;;;7.63;81.10;100718.66;5090442;28;20796;-21
2021/12/31 01:24:05;;;;;;;85.05;39.85;;;;;;;7.43;82.01;100715.72;5090915;28;20028;-20
2021/12/31 01:26:32;;;;;;;98.03;50.50;;;;;;;7.34;82.21;100716.81;5090896;28;20028;-21
2021/12/31 01:28:58;;;;;;;20.83;13.55;;;;;;;7.29;82.28;100705.91;5090403;28;20059;-21
2021/12/31 01:31:24;;;;;;;18.02;12.02;;;;;;;7.18;82.40;100704.53;5090536;28;20543;-22
2021/12/31 01:33:50;;;;;;;24.25;14.70;;;;;;;6.99;83.40;100700.56;5090526;28;20051;-21
2021/12/31 01:36:15;;;;;;;32.47;23.88;;;;;;;7.08;83.25;100688.06;5090779;28;20500;-21
2021/12/31 01:38:44;;;;;;;24.92;15.73;;;;;;;7.16;82.45;100678.19;5090387;28;20873;-21
2021/12/31 01:41:10;;;;;;;28.77;21.03;;;;;;;7.36;82.39;100698.88;5090398;28;20032;-21
2021/12/31 01:43:35;;;;;;;31.70;21.27;;;;;;;7.29;82.70;100687.34;5090208;28;20035;-21
2021/12/31 01:46:10;;;;;;;27.30;17.15;;;;;;;7.19;83.14;100693.75;5090652;28;20032;-21
2021/12/31 01:48:48;;;;;;;24.42;16.55;;;;;;;7.24;83.01;100687.91;5090244;28;20024;-21
2021/12/31 01:51:13;;;;;;;26.00;15.75;;;;;;;7.27;83.05;100697.31;5090474;28;20036;-20
2021/12/31 01:53:39;;;;;;;30.52;20.20;;;;;;;7.55;82.13;100700.16;5089990;28;20047;-20
2021/12/31 01:56:04;;;;;;;27.52;17.85;;;;;;;7.29;82.06;100700.59;5090227;28;20058;-21
2021/12/31 01:58:30;;;;;;;28.10;17.52;;;;;;;7.37;81.59;100688.06;5055455;28;20028;-20
2021/12/31 02:00:55;;;;;;;25.85;16.83;;;;;;;7.60;80.25;100669.41;5055377;28;20059;-20
2021/12/31 02:03:22;;;;;;;25.85;17.10;;;;;;;7.68;79.32;100678.28;5071862;28;20028;-21
2021/12/31 02:05:47;;;;;;;27.42;18.17;;;;;;;7.70;79.67;100692.19;5089976;28;20032;-21
2021/12/31 02:08:13;;;;;;;33.50;19.95;;;;;;;7.55;79.21;100663.81;5089970;28;20462;-20
2021/12/31 02:10:38;;;;;;;31.75;19.92;;;;;;;7.49;80.03;100680.47;5089843;28;20036;-21
2021/12/31 02:13:04;;;;;;;25.10;17.10;;;;;;;7.48;79.28;100673.53;5089791;28;20039;-21
2021/12/31 02:15:30;;;;;;;26.40;17.17;;;;;;;6.80;81.87;100678.00;5071694;28;20043;-21
2021/12/31 02:17:56;;;;;;;27.63;17.45;;;;;;;6.74;81.99;100665.47;5089601;28;20064;-21
2021/12/31 02:20:22;;;;;;;30.52;19.13;;;;;;;7.27;79.70;100657.50;5089811;28;20035;-21
2021/12/31 02:22:55;;;;;;;29.40;18.95;;;;;;;7.43;78.44;100670.59;5089681;28;20024;-21
2021/12/31 02:25:23;;;;;;;30.60;19.20;;;;;;;6.92;79.98;100665.97;5089598;28;20024;-20
2021/12/31 02:27:49;;;;;;;39.92;24.88;;;;;;;6.88;81.04;100672.63;5070536;28;20077;-21
2021/12/31 02:30:14;;;;;;;45.05;25.13;;;;;;;6.84;80.55;100671.34;5071138;28;20048;-20
2021/12/31 02:32:40;;;;;;;65.65;34.88;;;;;;;7.04;80.01;100671.66;5089246;28;20044;-20
2021/12/31 02:35:07;;;;;;;57.65;30.95;;;;;;;6.65;80.59;100670.03;5089202;28;20024;-21
2021/12/31 02:37:32;;;;;;;60.35;31.60;;;;;;;6.68;80.89;100676.78;5070973;28;20028;-20
2021/12/31 02:39:58;;;;;;;65.22;34.58;;;;;;;6.62;81.23;100688.97;5089383;28;20043;-21
2021/12/31 02:42:24;;;;;;;62.05;34.25;;;;;;;6.68;80.96;100687.41;5071064;28;20182;-21
2021/12/31 02:44:50;;;;;;;56.55;32.47;;;;;;;6.69;79.53;100673.97;5089129;28;20505;-21
2021/12/31 02:47:16;;;;;;;51.92;30.73;;;;;;;6.65;79.86;100672.69;5071333;28;20395;-22
2021/12/31 02:49:44;;;;;;;50.10;29.42;;;;;;;6.64;79.40;100676.34;5089326;28;20540;-21
2021/12/31 02:52:10;;;;;;;55.92;30.95;;;;;;;6.89;78.63;100684.09;5089515;28;20036;-22
2021/12/31 02:54:37;;;;;;;52.67;28.73;;;;;;;7.14;77.66;100668.75;5089353;28;20028;-21
2021/12/31 02:57:05;;;;;;;45.45;25.33;;;;;;;6.88;77.66;100671.81;5089227;28;20854;-21
2021/12/31 02:59:30;;;;;;;44.33;23.80;;;;;;;6.53;79.00;100688.16;5070961;28;20032;-21
2021/12/31 03:01:56;;;;;;;42.17;24.95;;;;;;;6.44;78.92;100700.66;5088944;28;20846;-21
2021/12/31 03:04:23;;;;;;;42.53;24.38;;;;;;;6.24;79.38;100704.75;5054001;28;20058;-21
2021/12/31 03:06:49;;;;;;;46.35;28.70;;;;;;;6.14;80.47;100704.97;5037386;28;20035;-20
2021/12/31 03:09:15;;;;;;;40.72;26.55;;;;;;;5.99;82.07;100701.44;5088822;28;20091;-21
2021/12/31 03:11:40;;;;;;;40.83;25.15;;;;;;;6.29;80.77;100702.41;5070577;28;20496;-21
2021/12/31 03:14:06;;;;;;;40.50;24.42;;;;;;;6.62;78.88;100702.22;5054093;28;20040;-21
2021/12/31 03:16:31;;;;;;;36.80;20.92;;;;;;;6.32;79.73;100694.13;5088391;28;20028;-20
2021/12/31 03:18:57;;;;;;;30.55;16.85;;;;;;;6.09;79.77;100699.41;5054171;28;20377;-21
2021/12/31 03:21:23;;;;;;;25.40;16.58;;;;;;;5.71;80.99;100707.13;5070133;28;20032;-22
2021/12/31 03:23:54;;;;;;;27.15;14.90;;;;;;;5.41;82.93;100700.78;5070581;28;20058;-21
2021/12/31 03:26:20;;;;;;;26.33;14.88;;;;;;;5.82;81.85;100725.31;5088223;28;20032;-21
2021/12/31 03:28:46;;;;;;;22.83;13.48;;;;;;;5.40;81.88;100704.44;5070453;28;20115;-21
2021/12/31 03:31:11;;;;;;;23.08;13.60;;;;;;;5.45;82.20;100702.09;5069910;28;20052;-20
2021/12/31 03:33:37;;;;;;;25.50;13.90;;;;;;;5.55;81.50;100696.59;5088198;28;20035;-20
2021/12/31 03:36:02;;;;;;;18.83;11.95;;;;;;;5.68;81.66;100718.06;5088018;28;20503;-21
2021/12/31 03:38:28;;;;;;;45.65;26.20;;;;;;;5.66;80.67;100708.63;5087979;28;20028;-21
2021/12/31 03:40:53;;;;;;;33.35;19.70;;;;;;;5.27;81.35;100715.53;5088075;28;20036;-21
2021/12/31 03:43:19;;;;;;;32.13;18.98;;;;;;;5.33;81.72;100745.75;5088250;28;20506;-20
2021/12/31 03:45:46;;;;;;;22.75;12.85;;;;;;;5.22;82.66;100750.41;5087922;28;20028;-22
2021/12/31 03:48:12;;;;;;;18.07;10.93;;;;;;;4.87;83.81;100738.34;5088260;28;20028;-21
2021/12/31 03:50:37;;;;;;;16.38;10.25;;;;;;;5.01;83.82;100763.31;5088057;28;20265;-21
2021/12/31 03:53:03;;;;;;;22.20;13.00;;;;;;;5.52;82.26;100755.97;5070214;28;20039;-21
2021/12/31 03:55:28;;;;;;;20.45;11.95;;;;;;;5.15;82.00;100746.78;5087873;28;20028;-21
2021/12/31 03:57:54;;;;;;;17.38;10.48;;;;;;;5.02;81.82;100760.47;5088066;28;20400;-21
2021/12/31 04:00:20;;;;;;;17.02;10.50;;;;;;;5.23;80.95;100767.09;5088081;28;20498;-20
2021/12/31 04:02:45;;;;;;;16.63;10.82;;;;;;;4.65;82.89;100758.31;5088125;28;20032;-21
2021/12/31 04:05:11;;;;;;;21.40;11.73;;;;;;;4.67;82.41;100777.47;5087977;28;20479;-21
2021/12/31 04:07:36;;;;;;;18.73;11.18;;;;;;;4.37;82.36;100760.41;5087489;28;20082;-20
2021/12/31 04:10:02;;;;;;;25.38;13.18;;;;;;;4.78;81.07;100771.03;5087905;28;20028;-20
2021/12/31 04:12:28;;;;;;;55.95;25.70;;;;;;;5.21;79.99;100780.50;5087865;28;20032;-21
2021/12/31 04:14:53;;;;;;;38.25;18.38;;;;;;;5.03;80.75;100782.47;5087917;28;20473;-21
2021/12/31 04:17:19;;;;;;;26.48;14.30;;;;;;;5.04;81.09;100774.34;5069571;28;20032;-21
2021/12/31 04:19:49;;;;;;;20.30;12.43;;;;;;;4.70;80.72;100777.16;5087495;28;20511;-21
2021/12/31 04:22:14;;;;;;;20.42;12.63;;;;;;;4.80;81.13;100756.69;5088093;28;20576;-21
2021/12/31 04:27:08;;;;;;;21.77;13.02;;;;;;;4.90;81.28;100771.56;5087865;28;20131;-21
2021/12/31 04:29:34;;;;;;;17.73;10.38;;;;;;;4.51;81.47;100756.31;5087481;28;20459;-21
2021/12/31 04:32:00;;;;;;;35.30;25.30;;;;;;;4.72;80.99;100777.81;5087351;28;20024;-20
2021/12/31 04:34:26;;;;;;;20.98;11.15;;;;;;;4.57;81.14;100784.72;5087481;28;20110;-20
2021/12/31 04:36:52;;;;;;;16.08;10.32;;;;;;;4.40;81.35;100768.00;5087370;28;20470;-21
2021/12/31 04:39:17;;;;;;;16.30;9.90;;;;;;;4.40;82.79;100787.31;5087520;28;20502;-21
2021/12/31 04:41:43;;;;;;;15.48;9.40;;;;;;;4.47;82.57;100791.97;5087308;28;20040;-21
2021/12/31 04:44:08;;;;;;;16.52;10.65;;;;;;;4.67;80.93;100797.78;5088081;28;20040;-20
2021/12/31 04:46:34;;;;;;;18.50;10.35;;;;;;;4.54;79.15;100808.84;5087782;28;20039;-20
2021/12/31 04:48:59;;;;;;;16.80;9.73;;;;;;;4.65;79.23;100797.94;5087395;28;20039;-21
2021/12/31 04:51:24;;;;;;;119.38;54.00;;;;;;;4.61;79.07;100810.66;5089850;28;20032;-21
2021/12/31 04:53:50;;;;;;;46.92;24.25;;;;;;;4.67;79.65;100821.56;5091452;28;20024;-21
2021/12/31 04:56:15;;;;;;;50.85;22.38;;;;;;;4.60;80.33;100813.47;5073169;28;20546;-20
2021/12/31 04:58:41;;;;;;;91.85;44.15;;;;;;;3.74;82.56;100801.22;5073275;28;20035;-21
2021/12/31 05:01:06;;;;;;;60.10;32.67;;;;;;;3.34;85.82;100821.06;5091177;28;20525;-21
2021/12/31 05:03:32;;;;;;;42.20;24.95;;;;;;;3.53;86.05;100820.88;5091132;28;20032;-21
2021/12/31 05:05:57;;;;;;;44.53;25.92;;;;;;;3.59;85.16;100824.69;5091217;28;20396;-22
2021/12/31 05:08:23;;;;;;;25.27;16.33;;;;;;;3.39;86.39;100834.59;5091531;28;20039;-21
2021/12/31 05:10:48;;;;;;;27.65;18.15;;;;;;;3.52;85.67;100835.03;5090950;28;20032;-21
2021/12/31 05:13:15;;;;;;;53.28;32.40;;;;;;;3.32;86.26;100836.22;5091257;28;20024;-21
2021/12/31 05:15:45;;;;;;;30.13;19.95;;;;;;;3.20;86.79;100819.78;5090589;28;20403;-21
2021/12/31 05:18:12;;;;;;;36.97;26.77;;;;;;;3.31;86.64;100848.56;5090897;28;20112;-20
2021/12/31 05:20:37;;;;;;;41.85;28.05;;;;;;;3.43;87.68;100846.50;5072737;28;20064;-20
2021/12/31 05:23:03;;;;;;;63.42;43.97;;;;;;;3.40;86.95;100846.81;5090649;28;20065;-21
2021/12/31 05:25:28;;;;;;;82.10;57.50;;;;;;;3.45;86.29;100847.16;5072289;28;20024;-22
2021/12/31 05:27:54;;;;;;;115.25;75.78;;;;;;;3.44;86.26;100853.44;5091000;28;20349;-21
2021/12/31 05:30:20;;;;;;;45.63;30.77;;;;;;;3.30;85.88;100814.44;5090829;28;20058;-20
2021/12/31 05:32:46;;;;;;;193.27;103.88;;;;;;;3.60;84.86;100835.09;5090446;28;20032;-21
2021/12/31 05:35:11;;;;;;;75.53;41.88;;;;;;;4.01;82.86;100842.44;5090565;28;20038;-20
2021/12/31 05:37:37;;;;;;;127.30;66.20;;;;;;;3.60;83.54;100835.09;5090471;28;20036;-21
2021/12/31 05:40:03;;;;;;;174.88;90.05;;;;;;;3.26;84.82;100834.19;5072289;28;20036;-20
2021/12/31 05:42:28;;;;;;;53.42;32.60;;;;;;;3.77;83.85;100843.13;5090578;28;20056;-21
2021/12/31 05:44:54;;;;;;;144.13;72.18;;;;;;;3.95;81.87;100840.44;5090398;28;20490;-20
2021/12/31 05:47:19;;;;;;;151.82;70.45;;;;;;;4.09;82.02;100829.28;5090633;28;20039;-20
2021/12/31 05:49:46;;;;;;;131.80;65.07;;;;;;;3.99;80.37;100824.13;5090291;28;20081;-20
2021/12/31 05:52:11;;;;;;;101.40;50.20;;;;;;;3.69;81.40;100843.06;5090302;28;20077;-21
2021/12/31 05:54:37;;;;;;;42.22;24.98;;;;;;;3.95;81.29;100835.97;5090411;28;20024;-20
2021/12/31 05:57:02;;;;;;;78.43;37.88;;;;;;;3.55;81.48;100816.25;5090304;28;20028;-21
2021/12/31 05:59:28;;;;;;;42.60;25.25;;;;;;;3.84;80.58;100823.03;5089923;28;20110;-20
2021/12/31 06:01:53;;;;;;;35.17;22.13;;;;;;;3.49;81.80;100824.78;5090043;28;20035;-21
2021/12/31 06:04:19;;;;;;;56.97;32.95;;;;;;;3.72;80.10;100843.59;5072074;28;20035;-22
2021/12/31 06:06:44;;;;;;;91.20;53.08;;;;;;;3.02;81.19;100843.50;5090536;28;20024;-20
2021/12/31 06:09:12;;;;;;;58.17;31.77;;;;;;;2.61;83.31;100832.56;5089959;28;20032;-21
2021/12/31 06:11:38;;;;;;;51.17;28.20;;;;;;;3.02;82.14;100817.16;5089726;28;20562;-20
2021/12/31 06:14:05;;;;;;;68.00;27.27;;;;;;;2.88;82.94;100815.06;5071950;28;20039;-21
2021/12/31 06:16:36;;;;;;;66.57;23.98;;;;;;;2.64;84.57;100819.13;5055481;28;20035;-21
2021/12/31 06:19:03;;;;;;;77.43;21.98;;;;;;;2.59;85.49;100816.09;5089886;28;20028;-21
2021/12/31 06:21:29;;;;;;;55.05;20.85;;;;;;;2.87;83.73;100808.16;5089629;28;20115;-21
2021/12/31 06:23:54;;;;;;;34.35;18.98;;;;;;;3.26;82.56;100823.63;5055131;28;20036;-21
2021/12/31 06:26:20;;;;;;;45.85;20.98;;;;;;;3.08;82.88;100836.81;5089868;28;20050;-20
2021/12/31 06:28:45;;;;;;;72.15;34.45;;;;;;;2.95;82.93;100818.75;5089496;28;20047;-21
2021/12/31 06:31:11;;;;;;;104.13;44.88;;;;;;;3.17;83.17;100823.56;5089328;28;20052;-20
2021/12/31 06:33:36;;;;;;;71.25;34.03;;;;;;;3.43;81.06;100820.13;5089180;28;20476;-20
2021/12/31 06:36:02;;;;;;;84.03;32.85;;;;;;;3.94;80.06;100823.78;5071565;28;20028;-20
2021/12/31 06:38:27;;;;;;;73.93;31.70;;;;;;;4.11;80.55;100840.53;5071300;28;20027;-20
2021/12/31 06:40:53;;;;;;;73.35;33.60;;;;;;;4.02;80.36;100837.03;5089289;28;20476;-20
2021/12/31 06:43:18;;;;;;;90.25;39.53;;;;;;;4.01;81.44;100848.53;5089369;28;20020;-21
2021/12/31 06:45:43;;;;;;;82.18;40.83;;;;;;;3.92;81.56;100857.38;5089241;28;20709;-21
2021/12/31 06:48:09;;;;;;;76.57;36.58;;;;;;;4.06;81.72;100857.81;5071042;28;20054;-20
2021/12/31 06:50:34;;;;;;;64.75;33.05;;;;;;;4.32;81.01;100855.94;5088991;28;20096;-20
2021/12/31 06:53:01;;;;;;;44.05;25.88;;;;;;;4.42;80.42;100859.28;5089168;28;20039;-21
2021/12/31 06:55:27;;;;;;;51.33;27.05;;;;;;;4.38;80.73;100852.69;5088653;28;20043;-21
2021/12/31 06:57:52;;;;;;;58.00;34.42;;;;;;;4.39;81.33;100864.91;5088848;28;20055;-21
2021/12/31 07:00:18;;;;;;;76.40;43.92;;;;;;;4.76;81.63;100871.63;5089100;28;20031;-21
2021/12/31 07:02:43;;;;;;;169.77;98.88;;;;;;;4.97;80.78;100886.22;5088973;28;20831;-21
2021/12/31 07:05:09;;;;;;;214.05;142.32;;;;;;;4.47;82.45;100876.47;5088858;28;20062;-21
2021/12/31 07:07:34;;;;;;;130.07;86.22;;;;;;;4.52;82.12;100868.91;5070479;28;20081;-21
2021/12/31 07:10:00;;;;;;;82.38;52.22;;;;;;;3.99;83.32;100810.91;5088749;28;20039;-21
2021/12/31 07:12:25;;;;;;;79.20;51.08;;;;;;;4.20;85.07;100875.69;5088423;28;20032;-21
2021/12/31 07:14:51;;;;;;;86.65;52.22;;;;;;;4.02;85.90;100860.78;5088323;28;20028;-21
2021/12/31 07:17:16;;;;;;;56.63;33.95;;;;;;;12.04;73.47;100883.69;5088836;28;20031;-21
2021/12/31 07:19:43;;;;;;;61.03;37.50;;;;;;;11.87;66.91;100887.81;5088781;28;20032;-20
2021/12/31 07:22:09;;;;;;;79.82;47.72;;;;;;;14.23;52.14;100891.44;5088804;28;20032;-20
2021/12/31 07:24:35;;;;;;;80.05;49.33;;;;;;;10.51;62.50;100861.28;5070603;28;20074;-21
2021/12/31 07:27:00;;;;;;;65.60;41.35;;;;;;;8.75;66.92;100901.00;5070125;28;20032;-21
2021/12/31 07:29:26;;;;;;;60.67;39.58;;;;;;;8.21;66.46;100902.09;5087836;28;20059;-22
2021/12/31 07:31:51;;;;;;;81.38;51.85;;;;;;;7.63;68.47;100891.19;5070117;28;20032;-22
2021/12/31 07:34:17;;;;;;;97.60;55.53;;;;;;;7.62;70.77;100911.63;5088503;28;20035;-21
2021/12/31 07:36:42;;;;;;;101.63;51.65;;;;;;;7.03;72.62;100898.13;5088557;28;20039;-21
2021/12/31 07:39:10;;;;;;;166.70;71.68;;;;;;;6.77;74.31;100904.53;5088714;28;20812;-20
2021/12/31 07:41:35;;;;;;;51.80;32.60;;;;;;;7.02;73.30;100876.06;5088363;28;20790;-21
2021/12/31 07:44:01;;;;;;;49.40;28.60;;;;;;;6.59;74.77;100903.97;5088055;28;20487;-20
2021/12/31 07:46:26;;;;;;;239.25;106.93;;;;;;;6.55;76.91;100916.72;5088121;28;20031;-20
2021/12/31 07:48:52;;;;;;;178.73;81.80;;;;;;;6.52;78.24;100932.97;5088203;28;20490;-21
2021/12/31 07:51:17;;;;;;;32.28;21.10;;;;;;;6.42;76.75;100927.06;5088087;28;20044;-21
2021/12/31 07:53:43;;;;;;;25.60;17.08;;;;;;;6.41;79.66;100899.72;5087663;28;20412;-20
2021/12/31 07:56:08;;;;;;;24.23;16.33;;;;;;;6.86;77.53;100912.44;5069834;28;20032;-20
2021/12/31 07:58:34;;;;;;;25.25;16.70;;;;;;;6.61;77.55;100931.13;5087511;28;20472;-21
2021/12/31 08:00:59;;;;;;;16.63;11.38;;;;;;;7.51;76.55;100914.69;5088307;28;20028;-20
2021/12/31 08:03:25;;;;;;;21.50;13.63;;;;;;;9.29;70.71;100926.34;5087811;28;20040;-21
2021/12/31 08:05:50;;;;;;;24.83;14.93;;;;;;;10.64;64.48;100941.34;5088064;28;20081;-21
2021/12/31 08:08:16;;;;;;;15.85;11.02;;;;;;;10.75;64.46;100932.78;5088348;28;20046;-20
2021/12/31 08:10:41;;;;;;;13.07;8.13;;;;;;;11.40;60.99;100925.19;5088017;28;20487;-20
2021/12/31 08:13:07;;;;;;;11.85;7.80;;;;;;;11.06;61.98;100929.63;5087389;28;20054;-21
2021/12/31 08:15:32;;;;;;;12.82;7.88;;;;;;;11.39;60.97;100928.06;5087117;28;20441;-21
2021/12/31 08:17:57;;;;;;;16.70;10.70;;;;;;;10.41;64.76;100937.13;5087122;28;20046;-21
2021/12/31 08:20:23;;;;;;;64.45;38.15;;;;;;;10.51;65.70;100946.63;5087645;28;20031;-21
2021/12/31 08:22:49;;;;;;;21.50;15.98;;;;;;;11.07;62.60;100930.44;5087680;28;20108;-21
2021/12/31 08:25:15;;;;;;;89.30;50.58;;;;;;;9.62;65.49;100927.50;5088611;28;20039;-20
2021/12/31 08:27:40;;;;;;;29.70;20.02;;;;;;;9.82;68.20;100932.16;5091372;28;20423;-20
2021/12/31 08:30:07;;;;;;;23.90;14.90;;;;;;;9.44;69.16;100937.78;5091700;28;20067;-21
2021/12/31 08:32:33;;;;;;;37.73;20.10;;;;;;;9.35;69.43;100930.91;5092047;28;20099;-20
2021/12/31 08:34:59;;;;;;;31.83;17.90;;;;;;;9.91;66.57;100941.69;5091787;28;20035;-21
2021/12/31 08:37:24;;;;;;;23.92;14.45;;;;;;;9.69;66.04;100918.75;5091528;28;20028;-20
2021/12/31 08:39:50;;;;;;;24.80;16.17;;;;;;;9.98;66.59;100926.56;5091739;28;20031;-21
2021/12/31 08:42:15;;;;;;;22.00;12.98;;;;;;;9.81;65.43;100923.34;5091815;28;20039;-22
2021/12/31 08:44:41;;;;;;;18.65;11.82;;;;;;;9.24;67.58;100914.44;5091966;28;20483;-21
2021/12/31 08:47:06;;;;;;;14.77;10.20;;;;;;;8.93;68.91;100909.41;5091831;28;20100;-21
2021/12/31 08:49:32;;;;;;;45.17;28.08;;;;;;;8.99;70.31;100902.47;5091383;28;20450;-21
2021/12/31 08:51:59;;;;;;;27.77;17.48;;;;;;;9.35;69.57;100894.47;5073507;28;20036;-21
2021/12/31 08:54:25;;;;;;;21.92;14.45;;;;;;;9.70;67.90;100905.22;5073341;28;20060;-20
2021/12/31 08:56:50;;;;;;;95.93;45.70;;;;;;;9.45;70.17;100899.47;5090137;28;20491;-20
2021/12/31 08:59:17;;;;;;;37.92;19.85;;;;;;;9.25;69.78;100902.78;5091280;28;20039;-21
2021/12/31 09:01:43;;;;;;;15.63;10.03;;;;;;;9.52;68.83;100927.00;5090834;28;20224;-20
2021/12/31 09:04:08;;;;;;;23.92;12.38;;;;;;;9.33;68.82;100914.31;5091191;28;20040;-21
2021/12/31 09:06:34;;;;;;;12.65;8.57;;;;;;;9.21;68.86;100896.19;5091195;28;20028;-21
2021/12/31 09:08:59;;;;;;;13.80;8.63;;;;;;;9.31;68.40;100892.38;5090985;28;20476;-21
2021/12/31 09:11:25;;;;;;;15.38;9.40;;;;;;;9.55;68.35;100894.66;5090524;28;20054;-21
2021/12/31 09:13:54;;;;;;;13.40;8.00;;;;;;;9.61;67.32;100893.88;5090754;28;20036;-21
2021/12/31 09:16:19;;;;;;;12.45;7.22;;;;;;;9.65;67.21;100876.50;5091118;28;20498;-20
2021/12/31 09:18:44;;;;;;;12.02;7.57;;;;;;;9.76;65.56;100866.34;5085972;28;20032;-22
2021/12/31 09:21:10;;;;;;;12.00;7.25;;;;;;;9.77;66.81;100876.81;5089115;28;20480;-21
2021/12/31 09:23:35;;;;;;;26.90;21.15;;;;;;;10.08;65.85;100861.44;5090451;28;20043;-21
2021/12/31 09:26:01;;;;;;;12.23;7.70;;;;;;;10.14;65.04;100866.81;5090557;28;20024;-21
2021/12/31 09:28:27;;;;;;;13.95;8.18;;;;;;;9.85;65.50;100868.66;5090978;28;20411;-22
2021/12/31 09:30:52;;;;;;;14.23;8.80;;;;;;;10.02;68.18;100855.03;5090872;28;20052;-21
2021/12/31 09:33:17;;;;;;;13.07;7.78;;;;;;;10.37;65.80;100844.41;5090685;28;20471;-21
2021/12/31 09:35:43;;;;;;;13.98;7.85;;;;;;;10.41;64.33;100841.13;5090208;28;20051;-20
2021/12/31 09:38:09;;;;;;;12.65;7.90;;;;;;;10.40;64.18;100834.16;5090479;28;20051;-22
2021/12/31 09:40:36;;;;;;;13.70;8.95;;;;;;;10.20;67.43;100827.88;5090454;28;20043;-21
2021/12/31 09:43:11;;;;;;;14.10;8.77;;;;;;;10.00;67.33;100817.13;5090486;28;20472;-21
2021/12/31 09:45:37;;;;;;;17.95;10.43;;;;;;;10.61;65.87;100822.53;5090409;28;20020;-21
2021/12/31 09:48:07;;;;;;;13.52;8.73;;;;;;;10.67;64.57;100812.91;5090984;28;20089;-21
2021/12/31 09:50:32;;;;;;;14.18;7.88;;;;;;;10.69;64.11;100794.88;5090380;28;20028;-21
2021/12/31 09:52:57;;;;;;;18.27;8.07;;;;;;;10.66;63.52;100816.59;5072276;28;20036;-20
2021/12/31 09:55:46;;;;;;;16.85;10.60;;;;;;;10.85;66.11;100791.81;5055236;28;20039;-22
2021/12/31 09:58:11;;;;;;;;;;;;;;;10.77;63.46;100805.34;5091261;28;20510;-21
2021/12/31 10:00:42;;;;;;;14.60;8.93;;;;;;;10.83;64.28;100785.88;5090416;28;19912;-20
2021/12/31 10:03:28;;;;;;;13.82;7.90;;;;;;;11.06;64.28;100801.47;5090132;28;20035;-21
2021/12/31 10:06:00;;;;;;;12.73;8.05;;;;;;;11.34;63.18;100803.16;5090649;28;20081;-21
2021/12/31 10:08:45;;;;;;;28.77;14.20;;;;;;;11.23;65.65;100787.72;5072089;28;20043;-21
2021/12/31 10:11:25;;;;;;;21.95;12.23;;;;;;;11.68;64.56;100787.09;5072284;28;20492;-21
2021/12/31 10:14:01;;;;;;;13.27;8.68;;;;;;;11.94;61.82;100771.03;5090058;28;20036;-21
2021/12/31 10:16:37;;;;;;;19.35;12.85;;;;;;;11.76;62.98;100776.19;5089933;28;20024;-20
2021/12/31 10:19:10;;;;;;;17.58;10.52;;;;;;;11.89;60.61;100784.22;5071851;28;20078;-20
2021/12/31 10:21:43;;;;;;;15.55;9.23;;;;;;;11.92;61.47;100777.63;5089740;28;20448;-20
2021/12/31 10:24:18;;;;;;;12.77;8.10;;;;;;;11.99;60.53;100749.84;5090021;28;20113;-21
2021/12/31 10:26:43;;;;;;;12.82;8.13;;;;;;;12.10;61.16;100766.25;5089495;28;20115;-20
2021/12/31 10:29:09;;;;;;;14.93;9.05;;;;;;;12.03;62.05;100759.06;5089389;28;20043;-20
2021/12/31 10:31:41;;;;;;;64.25;39.28;;;;;;;12.21;62.61;100755.69;5071611;28;20032;-20
2021/12/31 10:34:07;;;;;;;25.42;17.90;;;;;;;12.30;62.08;100753.63;5089594;28;20515;-20
2021/12/31 10:36:37;;;;;;;13.63;8.48;;;;;;;12.49;59.42;100751.03;5054496;28;20024;-20
2021/12/31 10:39:18;;;;;;;14.07;8.80;;;;;;;12.05;59.82;100738.31;5089302;28;20028;-21
2021/12/31 10:41:44;;;;;;;12.13;7.78;;;;;;;11.96;62.94;100746.75;5089238;28;20032;-21
2021/12/31 10:44:10;;;;;;;12.77;7.85;;;;;;;11.76;62.58;100736.09;5089140;28;20035;-20
2021/12/31 10:46:35;;;;;;;13.88;7.72;;;;;;;11.96;61.89;100738.75;5071385;28;20454;-22
2021/12/31 10:49:07;;;;;;;12.10;8.02;;;;;;;12.30;61.69;100737.56;5088178;28;20032;-20
2021/12/31 10:51:43;;;;;;;13.93;7.78;;;;;;;12.42;60.62;100735.84;5088812;28;20032;-21
2021/12/31 10:54:16;;;;;;;12.85;7.35;;;;;;;12.16;60.28;100727.97;5089419;28;20043;-20
2021/12/31 10:56:41;;;;;;;12.73;7.90;;;;;;;12.36;61.91;100731.38;5089094;28;20050;-20
2021/12/31 10:59:07;;;;;;;11.50;7.47;;;;;;;12.53;60.57;100730.84;5088986;28;20462;-21
2021/12/31 11:01:32;;;;;;;14.43;7.35;;;;;;;12.82;58.42;100738.25;5088695;28;20031;-21
2021/12/31 11:03:58;;;;;;;11.32;6.80;;;;;;;12.67;57.72;100737.75;5088990;28;20040;-21
2021/12/31 11:06:23;;;;;;;14.80;9.05;;;;;;;12.67;59.22;100727.06;5088818;28;20386;-20
2021/12/31 11:08:49;;;;;;;12.45;6.78;;;;;;;12.54;59.23;100730.63;5070440;28;20028;-21
2021/12/31 11:11:15;;;;;;;13.85;7.80;;;;;;;13.21;59.19;100733.63;5070516;28;20024;-20
2021/12/31 11:13:41;;;;;;;13.07;7.28;;;;;;;13.10;57.47;100726.31;5054069;28;20035;-21
2021/12/31 11:16:09;;;;;;;12.73;8.13;;;;;;;12.98;58.64;100701.28;5053609;28;20028;-20
2021/12/31 11:18:34;;;;;;;12.00;7.78;;;;;;;13.36;59.11;100713.72;5088731;28;20032;-20
2021/12/31 11:21:01;;;;;;;11.63;7.10;;;;;;;13.00;58.05;100728.66;5088612;28;20036;-20